sensor_id;sensor_type;location;lat;lon;timestamp;temperature;humidity
13203;DHT22;6666;51.626;7.530;2023-11-22T00:01:26;6.00;99.90
13203;DHT22;6666;51.626;7.530;2023-11-22T00:03:54;6.00;99.90
13203;DHT22;6666;51.626;7.530;2023-11-22T00:06:23;5.90;99.90
13203;DHT22;6666;51.626;7.530;2023-11-22T00:08:52;6.10;99.90
13203;DHT22;6666;51.626;7.530;2023-11-22T00:11:20;6.00;99.90
13203;DHT22;6666;51.626;7.530;2023-11-22T00:13:48;6.00;99.90
13203;DHT22;6666;51.626;7.530;2023-11-22T00:16:24;6.00;99.90
13203;DHT22;6666;51.626;7.530;2023-11-22T00:18:52;6.00;99.90
13203;DHT22;6666;51.626;7.530;2023-11-22T00:21:21;6.10;99.90
13203;DHT22;6666;51.626;7.530;2023-11-22T00:23:50;6.00;99.90
13203;DHT22;6666;51.626;7.530;2023-11-22T00:26:18;6.00;99.90
13203;DHT22;6666;51.626;7.530;2023-11-22T00:28:54;6.00;99.90
13203;DHT22;6666;51.626;7.530;2023-11-22T00:31:22;6.00;99.90
13203;DHT22;6666;51.626;7.530;2023-11-22T00:33:51;5.90;99.90
13203;DHT22;6666;51.626;7.530;2023-11-22T00:36:19;5.80;99.90
13203;DHT22;6666;51.626;7.530;2023-11-22T00:38:47;5.90;99.90
13203;DHT22;6666;51.626;7.530;2023-11-22T00:41:16;5.90;99.90
13203;DHT22;6666;51.626;7.530;2023-11-22T00:43:45;5.80;99.90
13203;DHT22;6666;51.626;7.530;2023-11-22T00:46:13;5.80;99.90
13203;DHT22;6666;51.626;7.530;2023-11-22T00:48:41;5.90;99.90
13203;DHT22;6666;51.626;7.530;2023-11-22T00:51:10;5.90;99.90
13203;DHT22;6666;51.626;7.530;2023-11-22T00:53:38;5.80;99.90
13203;DHT22;6666;51.626;7.530;2023-11-22T00:56:06;5.80;99.90
13203;DHT22;6666;51.626;7.530;2023-11-22T00:58:36;5.80;99.90
13203;DHT22;6666;51.626;7.530;2023-11-22T01:01:04;5.80;99.90
13203;DHT22;6666;51.626;7.530;2023-11-22T01:03:33;5.80;99.90
13203;DHT22;6666;51.626;7.530;2023-11-22T01:06:02;5.80;99.90
13203;DHT22;6666;51.626;7.530;2023-11-22T01:08:30;5.70;99.90
13203;DHT22;6666;51.626;7.530;2023-11-22T01:11:00;5.70;99.90
13203;DHT22;6666;51.626;7.530;2023-11-22T01:13:29;5.70;99.90
13203;DHT22;6666;51.626;7.530;2023-11-22T01:15:59;5.50;99.90
13203;DHT22;6666;51.626;7.530;2023-11-22T01:18:28;5.60;99.90
13203;DHT22;6666;51.626;7.530;2023-11-22T01:20:57;5.60;99.90
13203;DHT22;6666;51.626;7.530;2023-11-22T01:23:25;5.40;99.90
13203;DHT22;6666;51.626;7.530;2023-11-22T01:25:54;5.40;99.90
13203;DHT22;6666;51.626;7.530;2023-11-22T01:28:23;5.40;99.90
13203;DHT22;6666;51.626;7.530;2023-11-22T01:30:51;5.30;99.90
13203;DHT22;6666;51.626;7.530;2023-11-22T01:33:21;5.20;99.90
13203;DHT22;6666;51.626;7.530;2023-11-22T01:35:49;5.20;99.90
13203;DHT22;6666;51.626;7.530;2023-11-22T01:38:17;5.10;99.90
13203;DHT22;6666;51.626;7.530;2023-11-22T01:40:47;5.10;99.90
13203;DHT22;6666;51.626;7.530;2023-11-22T01:43:18;5.20;99.90
13203;DHT22;6666;51.626;7.530;2023-11-22T01:45:46;5.20;99.90
13203;DHT22;6666;51.626;7.530;2023-11-22T01:48:16;5.20;99.90
13203;DHT22;6666;51.626;7.530;2023-11-22T01:50:46;5.10;99.90
13203;DHT22;6666;51.626;7.530;2023-11-22T01:53:15;4.90;99.90
13203;DHT22;6666;51.626;7.530;2023-11-22T01:55:44;4.90;99.90
13203;DHT22;6666;51.626;7.530;2023-11-22T01:58:15;4.90;99.90
13203;DHT22;6666;51.626;7.530;2023-11-22T02:00:45;4.80;99.90
13203;DHT22;6666;51.626;7.530;2023-11-22T02:03:16;4.70;99.90
13203;DHT22;6666;51.626;7.530;2023-11-22T02:05:47;4.80;99.90
13203;DHT22;6666;51.626;7.530;2023-11-22T02:08:16;4.80;99.90
13203;DHT22;6666;51.626;7.530;2023-11-22T02:10:45;4.70;99.90
13203;DHT22;6666;51.626;7.530;2023-11-22T02:13:16;4.60;99.90
13203;DHT22;6666;51.626;7.530;2023-11-22T02:15:44;4.50;99.90
13203;DHT22;6666;51.626;7.530;2023-11-22T02:18:13;4.60;99.90
13203;DHT22;6666;51.626;7.530;2023-11-22T02:20:42;4.60;99.90
13203;DHT22;6666;51.626;7.530;2023-11-22T02:23:12;4.50;99.90
13203;DHT22;6666;51.626;7.530;2023-11-22T02:25:40;4.50;99.90
13203;DHT22;6666;51.626;7.530;2023-11-22T02:28:08;4.50;99.90
13203;DHT22;6666;51.626;7.530;2023-11-22T02:30:36;4.60;99.90
13203;DHT22;6666;51.626;7.530;2023-11-22T02:33:05;4.50;99.90
13203;DHT22;6666;51.626;7.530;2023-11-22T02:35:33;4.40;99.90
13203;DHT22;6666;51.626;7.530;2023-11-22T02:38:02;4.30;99.90
13203;DHT22;6666;51.626;7.530;2023-11-22T02:40:34;4.30;99.90
13203;DHT22;6666;51.626;7.530;2023-11-22T02:43:02;4.30;99.90
13203;DHT22;6666;51.626;7.530;2023-11-22T02:45:34;4.30;99.90
13203;DHT22;6666;51.626;7.530;2023-11-22T02:48:03;4.20;99.90
13203;DHT22;6666;51.626;7.530;2023-11-22T02:50:36;4.20;99.90
13203;DHT22;6666;51.626;7.530;2023-11-22T03:02:10;4.10;99.90
13203;DHT22;6666;51.626;7.530;2023-11-22T03:04:38;4.20;99.90
13203;DHT22;6666;51.626;7.530;2023-11-22T03:07:06;4.20;99.90
13203;DHT22;6666;51.626;7.530;2023-11-22T03:09:34;4.10;99.90
13203;DHT22;6666;51.626;7.530;2023-11-22T03:12:04;4.10;99.90
13203;DHT22;6666;51.626;7.530;2023-11-22T03:14:33;4.20;99.90
13203;DHT22;6666;51.626;7.530;2023-11-22T03:17:01;4.10;99.90
13203;DHT22;6666;51.626;7.530;2023-11-22T03:19:31;4.10;99.90
13203;DHT22;6666;51.626;7.530;2023-11-22T03:22:01;4.10;99.90
13203;DHT22;6666;51.626;7.530;2023-11-22T03:24:30;4.10;99.90
13203;DHT22;6666;51.626;7.530;2023-11-22T03:26:59;4.00;99.90
13203;DHT22;6666;51.626;7.530;2023-11-22T03:29:28;4.00;99.90
13203;DHT22;6666;51.626;7.530;2023-11-22T03:31:56;4.00;99.90
13203;DHT22;6666;51.626;7.530;2023-11-22T03:34:25;3.90;99.90
13203;DHT22;6666;51.626;7.530;2023-11-22T03:36:54;3.90;99.90
13203;DHT22;6666;51.626;7.530;2023-11-22T03:39:23;3.90;99.90
13203;DHT22;6666;51.626;7.530;2023-11-22T03:41:51;3.90;99.90
13203;DHT22;6666;51.626;7.530;2023-11-22T03:44:19;3.90;99.90
13203;DHT22;6666;51.626;7.530;2023-11-22T03:46:49;3.80;99.90
13203;DHT22;6666;51.626;7.530;2023-11-22T03:49:17;3.80;99.90
13203;DHT22;6666;51.626;7.530;2023-11-22T03:51:46;3.70;99.90
13203;DHT22;6666;51.626;7.530;2023-11-22T03:54:16;3.70;99.90
13203;DHT22;6666;51.626;7.530;2023-11-22T03:56:45;3.70;99.90
13203;DHT22;6666;51.626;7.530;2023-11-22T03:59:13;3.60;99.90
13203;DHT22;6666;51.626;7.530;2023-11-22T04:01:41;3.60;99.90
13203;DHT22;6666;51.626;7.530;2023-11-22T04:04:10;3.50;99.90
13203;DHT22;6666;51.626;7.530;2023-11-22T04:06:38;3.50;99.90
13203;DHT22;6666;51.626;7.530;2023-11-22T04:09:07;3.50;99.90
13203;DHT22;6666;51.626;7.530;2023-11-22T04:11:36;3.50;99.90
13203;DHT22;6666;51.626;7.530;2023-11-22T04:14:05;3.50;99.90
13203;DHT22;6666;51.626;7.530;2023-11-22T04:16:33;3.50;99.90
13203;DHT22;6666;51.626;7.530;2023-11-22T04:19:02;3.40;99.90
13203;DHT22;6666;51.626;7.530;2023-11-22T04:21:31;3.40;99.90
13203;DHT22;6666;51.626;7.530;2023-11-22T04:23:59;3.40;99.90
13203;DHT22;6666;51.626;7.530;2023-11-22T04:26:27;3.50;99.90
13203;DHT22;6666;51.626;7.530;2023-11-22T04:28:57;3.40;99.90
13203;DHT22;6666;51.626;7.530;2023-11-22T04:31:26;3.40;99.90
13203;DHT22;6666;51.626;7.530;2023-11-22T04:33:54;3.30;99.90
13203;DHT22;6666;51.626;7.530;2023-11-22T04:36:24;3.30;99.90
13203;DHT22;6666;51.626;7.530;2023-11-22T04:38:53;3.20;99.90
13203;DHT22;6666;51.626;7.530;2023-11-22T04:41:21;3.20;99.90
13203;DHT22;6666;51.626;7.530;2023-11-22T04:43:51;3.10;99.90
13203;DHT22;6666;51.626;7.530;2023-11-22T04:46:21;3.10;99.90
13203;DHT22;6666;51.626;7.530;2023-11-22T04:48:49;3.00;99.90
13203;DHT22;6666;51.626;7.530;2023-11-22T04:51:18;3.00;99.90
13203;DHT22;6666;51.626;7.530;2023-11-22T04:53:46;2.90;99.90
13203;DHT22;6666;51.626;7.530;2023-11-22T04:56:14;3.00;99.90
13203;DHT22;6666;51.626;7.530;2023-11-22T04:58:44;3.00;99.90
13203;DHT22;6666;51.626;7.530;2023-11-22T05:01:12;3.00;99.90
13203;DHT22;6666;51.626;7.530;2023-11-22T05:03:45;3.00;99.90
13203;DHT22;6666;51.626;7.530;2023-11-22T05:06:14;2.90;99.90
13203;DHT22;6666;51.626;7.530;2023-11-22T05:08:43;2.90;99.90
13203;DHT22;6666;51.626;7.530;2023-11-22T05:11:12;2.80;99.90
13203;DHT22;6666;51.626;7.530;2023-11-22T05:13:42;2.80;99.90
13203;DHT22;6666;51.626;7.530;2023-11-22T05:16:10;2.70;99.90
13203;DHT22;6666;51.626;7.530;2023-11-22T05:18:39;2.80;99.90
13203;DHT22;6666;51.626;7.530;2023-11-22T05:21:08;2.70;99.90
13203;DHT22;6666;51.626;7.530;2023-11-22T05:23:36;2.80;99.90
13203;DHT22;6666;51.626;7.530;2023-11-22T05:26:05;2.80;99.90
13203;DHT22;6666;51.626;7.530;2023-11-22T05:28:34;2.80;99.90
13203;DHT22;6666;51.626;7.530;2023-11-22T05:31:02;2.70;99.90
13203;DHT22;6666;51.626;7.530;2023-11-22T05:33:30;2.70;99.90
13203;DHT22;6666;51.626;7.530;2023-11-22T05:35:59;2.60;99.90
13203;DHT22;6666;51.626;7.530;2023-11-22T05:38:28;2.60;99.90
13203;DHT22;6666;51.626;7.530;2023-11-22T05:40:56;2.50;99.90
13203;DHT22;6666;51.626;7.530;2023-11-22T05:43:24;2.60;99.90
13203;DHT22;6666;51.626;7.530;2023-11-22T05:45:54;2.50;99.90
13203;DHT22;6666;51.626;7.530;2023-11-22T05:48:22;2.50;99.90
13203;DHT22;6666;51.626;7.530;2023-11-22T05:50:50;2.40;99.90
13203;DHT22;6666;51.626;7.530;2023-11-22T05:53:19;2.50;99.90
13203;DHT22;6666;51.626;7.530;2023-11-22T05:55:49;2.50;99.90
13203;DHT22;6666;51.626;7.530;2023-11-22T05:58:17;2.40;99.90
13203;DHT22;6666;51.626;7.530;2023-11-22T06:00:46;2.40;99.90
13203;DHT22;6666;51.626;7.530;2023-11-22T06:03:14;2.50;99.90
13203;DHT22;6666;51.626;7.530;2023-11-22T06:05:43;2.50;99.90
13203;DHT22;6666;51.626;7.530;2023-11-22T06:08:11;2.50;99.90
13203;DHT22;6666;51.626;7.530;2023-11-22T06:10:39;2.40;99.90
13203;DHT22;6666;51.626;7.530;2023-11-22T06:13:10;2.30;99.90
13203;DHT22;6666;51.626;7.530;2023-11-22T06:15:39;2.20;99.90
13203;DHT22;6666;51.626;7.530;2023-11-22T06:18:07;2.20;99.90
13203;DHT22;6666;51.626;7.530;2023-11-22T06:20:36;2.20;99.90
13203;DHT22;6666;51.626;7.530;2023-11-22T06:23:04;2.10;99.90
13203;DHT22;6666;51.626;7.530;2023-11-22T06:25:33;2.10;99.90
13203;DHT22;6666;51.626;7.530;2023-11-22T06:28:03;2.10;99.90
13203;DHT22;6666;51.626;7.530;2023-11-22T06:30:33;2.00;99.90
13203;DHT22;6666;51.626;7.530;2023-11-22T06:33:02;2.00;99.90
13203;DHT22;6666;51.626;7.530;2023-11-22T06:35:30;1.90;99.90
13203;DHT22;6666;51.626;7.530;2023-11-22T06:37:58;1.90;99.90
13203;DHT22;6666;51.626;7.530;2023-11-22T06:40:26;1.80;99.90
13203;DHT22;6666;51.626;7.530;2023-11-22T06:42:56;1.90;99.90
13203;DHT22;6666;51.626;7.530;2023-11-22T06:45:24;1.80;99.90
13203;DHT22;6666;51.626;7.530;2023-11-22T06:47:54;1.80;99.90
13203;DHT22;6666;51.626;7.530;2023-11-22T06:50:22;1.80;99.90
13203;DHT22;6666;51.626;7.530;2023-11-22T06:52:51;1.80;99.90
13203;DHT22;6666;51.626;7.530;2023-11-22T06:55:19;1.70;99.90
13203;DHT22;6666;51.626;7.530;2023-11-22T06:57:48;1.60;99.90
13203;DHT22;6666;51.626;7.530;2023-11-22T07:00:17;1.60;99.90
13203;DHT22;6666;51.626;7.530;2023-11-22T07:02:47;1.50;99.90
13203;DHT22;6666;51.626;7.530;2023-11-22T07:05:17;1.50;99.90
13203;DHT22;6666;51.626;7.530;2023-11-22T07:07:46;1.50;99.90
13203;DHT22;6666;51.626;7.530;2023-11-22T07:10:15;1.40;99.90
13203;DHT22;6666;51.626;7.530;2023-11-22T07:12:46;1.40;99.90
13203;DHT22;6666;51.626;7.530;2023-11-22T07:15:14;1.40;99.90
13203;DHT22;6666;51.626;7.530;2023-11-22T07:17:43;1.50;99.90
13203;DHT22;6666;51.626;7.530;2023-11-22T07:20:12;1.40;99.90
13203;DHT22;6666;51.626;7.530;2023-11-22T07:22:45;1.40;99.90
13203;DHT22;6666;51.626;7.530;2023-11-22T07:25:13;1.40;99.90
13203;DHT22;6666;51.626;7.530;2023-11-22T07:27:45;1.50;99.90
13203;DHT22;6666;51.626;7.530;2023-11-22T07:30:14;1.60;99.90
13203;DHT22;6666;51.626;7.530;2023-11-22T07:32:43;1.50;99.90
13203;DHT22;6666;51.626;7.530;2023-11-22T07:35:11;1.60;99.90
13203;DHT22;6666;51.626;7.530;2023-11-22T07:37:39;1.70;99.90
13203;DHT22;6666;51.626;7.530;2023-11-22T07:40:12;1.70;99.90
13203;DHT22;6666;51.626;7.530;2023-11-22T07:42:41;1.80;99.90
13203;DHT22;6666;51.626;7.530;2023-11-22T07:45:10;1.70;99.90
13203;DHT22;6666;51.626;7.530;2023-11-22T07:47:41;1.80;99.90
13203;DHT22;6666;51.626;7.530;2023-11-22T07:50:11;1.90;99.90
13203;DHT22;6666;51.626;7.530;2023-11-22T07:52:39;2.00;99.90
13203;DHT22;6666;51.626;7.530;2023-11-22T07:55:10;2.00;99.90
13203;DHT22;6666;51.626;7.530;2023-11-22T07:57:38;2.10;99.90
13203;DHT22;6666;51.626;7.530;2023-11-22T08:00:08;2.10;99.90
13203;DHT22;6666;51.626;7.530;2023-11-22T08:02:38;2.20;99.90
13203;DHT22;6666;51.626;7.530;2023-11-22T08:05:07;2.20;99.90
13203;DHT22;6666;51.626;7.530;2023-11-22T08:07:36;2.30;99.90
13203;DHT22;6666;51.626;7.530;2023-11-22T08:10:09;2.40;99.90
13203;DHT22;6666;51.626;7.530;2023-11-22T08:12:46;2.40;99.90
13203;DHT22;6666;51.626;7.530;2023-11-22T08:15:15;2.40;99.90
13203;DHT22;6666;51.626;7.530;2023-11-22T08:17:44;2.40;99.90
13203;DHT22;6666;51.626;7.530;2023-11-22T08:20:13;2.40;99.90
13203;DHT22;6666;51.626;7.530;2023-11-22T08:22:45;2.40;99.90
13203;DHT22;6666;51.626;7.530;2023-11-22T08:25:17;2.50;99.90
13203;DHT22;6666;51.626;7.530;2023-11-22T08:27:46;2.50;99.90
13203;DHT22;6666;51.626;7.530;2023-11-22T08:30:14;2.50;99.90
13203;DHT22;6666;51.626;7.530;2023-11-22T08:32:43;2.50;99.90
13203;DHT22;6666;51.626;7.530;2023-11-22T08:35:15;2.60;99.90
13203;DHT22;6666;51.626;7.530;2023-11-22T08:37:43;2.70;99.90
13203;DHT22;6666;51.626;7.530;2023-11-22T08:40:14;2.80;99.90
13203;DHT22;6666;51.626;7.530;2023-11-22T08:42:45;2.90;99.90
13203;DHT22;6666;51.626;7.530;2023-11-22T08:45:13;3.00;99.90
13203;DHT22;6666;51.626;7.530;2023-11-22T08:47:42;3.10;99.90
13203;DHT22;6666;51.626;7.530;2023-11-22T08:50:10;3.10;99.90
13203;DHT22;6666;51.626;7.530;2023-11-22T08:52:39;3.10;99.90
13203;DHT22;6666;51.626;7.530;2023-11-22T08:55:09;3.20;99.90
13203;DHT22;6666;51.626;7.530;2023-11-22T08:57:37;3.30;99.90
13203;DHT22;6666;51.626;7.530;2023-11-22T09:00:09;3.40;99.90
13203;DHT22;6666;51.626;7.530;2023-11-22T09:02:38;3.40;99.90
13203;DHT22;6666;51.626;7.530;2023-11-22T09:05:08;3.50;99.90
13203;DHT22;6666;51.626;7.530;2023-11-22T09:07:36;3.50;99.90
13203;DHT22;6666;51.626;7.530;2023-11-22T09:10:06;3.60;99.90
13203;DHT22;6666;51.626;7.530;2023-11-22T09:12:38;3.60;99.90
13203;DHT22;6666;51.626;7.530;2023-11-22T09:15:10;3.70;99.90
13203;DHT22;6666;51.626;7.530;2023-11-22T09:17:41;3.80;99.90
13203;DHT22;6666;51.626;7.530;2023-11-22T09:20:11;4.00;99.90
13203;DHT22;6666;51.626;7.530;2023-11-22T09:22:43;3.80;99.90
13203;DHT22;6666;51.626;7.530;2023-11-22T09:25:15;4.00;99.90
13203;DHT22;6666;51.626;7.530;2023-11-22T09:27:46;4.10;99.90
13203;DHT22;6666;51.626;7.530;2023-11-22T09:30:20;4.20;99.90
13203;DHT22;6666;51.626;7.530;2023-11-22T09:33:02;4.20;99.90
13203;DHT22;6666;51.626;7.530;2023-11-22T09:35:31;4.20;99.90
13203;DHT22;6666;51.626;7.530;2023-11-22T09:38:00;4.20;99.90
13203;DHT22;6666;51.626;7.530;2023-11-22T09:40:29;4.20;99.90
13203;DHT22;6666;51.626;7.530;2023-11-22T09:42:58;4.30;99.90
13203;DHT22;6666;51.626;7.530;2023-11-22T09:45:31;4.40;99.90
13203;DHT22;6666;51.626;7.530;2023-11-22T09:47:59;4.40;99.90
13203;DHT22;6666;51.626;7.530;2023-11-22T09:50:34;4.40;99.90
13203;DHT22;6666;51.626;7.530;2023-11-22T09:53:07;4.30;99.90
13203;DHT22;6666;51.626;7.530;2023-11-22T09:55:37;4.30;99.90
13203;DHT22;6666;51.626;7.530;2023-11-22T09:58:06;4.30;99.90
13203;DHT22;6666;51.626;7.530;2023-11-22T10:00:36;4.40;99.90
13203;DHT22;6666;51.626;7.530;2023-11-22T10:03:04;4.30;99.90
13203;DHT22;6666;51.626;7.530;2023-11-22T10:05:32;4.30;99.90
13203;DHT22;6666;51.626;7.530;2023-11-22T10:08:01;4.30;99.90
13203;DHT22;6666;51.626;7.530;2023-11-22T10:10:31;4.40;99.90
13203;DHT22;6666;51.626;7.530;2023-11-22T10:13:01;4.40;99.90
13203;DHT22;6666;51.626;7.530;2023-11-22T10:15:30;4.40;99.90
13203;DHT22;6666;51.626;7.530;2023-11-22T10:18:00;4.40;99.90
13203;DHT22;6666;51.626;7.530;2023-11-22T10:20:36;4.60;99.90
13203;DHT22;6666;51.626;7.530;2023-11-22T10:23:08;4.60;99.90
13203;DHT22;6666;51.626;7.530;2023-11-22T10:25:43;4.80;99.90
13203;DHT22;6666;51.626;7.530;2023-11-22T10:28:11;4.60;99.90
13203;DHT22;6666;51.626;7.530;2023-11-22T10:30:39;4.70;99.90
13203;DHT22;6666;51.626;7.530;2023-11-22T10:33:11;4.60;99.90
13203;DHT22;6666;51.626;7.530;2023-11-22T10:35:42;4.60;99.90
13203;DHT22;6666;51.626;7.530;2023-11-22T10:38:13;4.60;99.90
13203;DHT22;6666;51.626;7.530;2023-11-22T10:40:42;4.80;99.90
13203;DHT22;6666;51.626;7.530;2023-11-22T10:43:12;4.80;99.90
13203;DHT22;6666;51.626;7.530;2023-11-22T10:45:42;4.60;99.90
13203;DHT22;6666;51.626;7.530;2023-11-22T10:48:15;4.60;99.90
13203;DHT22;6666;51.626;7.530;2023-11-22T10:50:44;4.70;99.90
13203;DHT22;6666;51.626;7.530;2023-11-22T10:53:15;4.70;99.90
13203;DHT22;6666;51.626;7.530;2023-11-22T10:55:45;4.80;99.90
13203;DHT22;6666;51.626;7.530;2023-11-22T10:58:14;4.80;99.90
13203;DHT22;6666;51.626;7.530;2023-11-22T11:00:46;4.90;99.90
13203;DHT22;6666;51.626;7.530;2023-11-22T11:03:18;4.70;99.90
13203;DHT22;6666;51.626;7.530;2023-11-22T11:05:51;4.70;99.90
13203;DHT22;6666;51.626;7.530;2023-11-22T11:08:21;4.90;99.90
13203;DHT22;6666;51.626;7.530;2023-11-22T11:10:52;5.00;99.90
13203;DHT22;6666;51.626;7.530;2023-11-22T11:13:21;5.10;99.90
13203;DHT22;6666;51.626;7.530;2023-11-22T11:15:51;5.20;99.90
13203;DHT22;6666;51.626;7.530;2023-11-22T11:18:23;5.20;99.90
13203;DHT22;6666;51.626;7.530;2023-11-22T11:20:52;5.30;99.90
13203;DHT22;6666;51.626;7.530;2023-11-22T11:23:22;5.20;99.90
13203;DHT22;6666;51.626;7.530;2023-11-22T11:25:54;5.30;99.90
13203;DHT22;6666;51.626;7.530;2023-11-22T11:28:23;5.30;99.90
13203;DHT22;6666;51.626;7.530;2023-11-22T11:30:53;5.40;99.90
13203;DHT22;6666;51.626;7.530;2023-11-22T11:33:32;5.40;99.90
13203;DHT22;6666;51.626;7.530;2023-11-22T11:36:02;5.50;99.90
13203;DHT22;6666;51.626;7.530;2023-11-22T11:38:32;5.50;99.90
13203;DHT22;6666;51.626;7.530;2023-11-22T11:41:08;5.60;99.90
13203;DHT22;6666;51.626;7.530;2023-11-22T11:43:40;5.60;99.90
13203;DHT22;6666;51.626;7.530;2023-11-22T11:46:09;5.80;99.90
13203;DHT22;6666;51.626;7.530;2023-11-22T11:48:42;5.80;99.90
13203;DHT22;6666;51.626;7.530;2023-11-22T11:51:13;5.90;99.90
13203;DHT22;6666;51.626;7.530;2023-11-22T11:53:42;5.80;99.90
13203;DHT22;6666;51.626;7.530;2023-11-22T11:56:10;5.60;99.90
13203;DHT22;6666;51.626;7.530;2023-11-22T11:58:41;5.50;99.90
13203;DHT22;6666;51.626;7.530;2023-11-22T12:01:12;5.60;99.90
13203;DHT22;6666;51.626;7.530;2023-11-22T12:03:41;5.60;99.90
13203;DHT22;6666;51.626;7.530;2023-11-22T12:06:10;5.60;99.90
13203;DHT22;6666;51.626;7.530;2023-11-22T12:08:38;5.50;99.90
13203;DHT22;6666;51.626;7.530;2023-11-22T12:11:07;5.40;99.90
13203;DHT22;6666;51.626;7.530;2023-11-22T12:13:35;5.30;99.90
13203;DHT22;6666;51.626;7.530;2023-11-22T12:16:06;5.20;99.90
13203;DHT22;6666;51.626;7.530;2023-11-22T12:18:43;5.30;99.90
13203;DHT22;6666;51.626;7.530;2023-11-22T12:21:11;5.30;99.90
13203;DHT22;6666;51.626;7.530;2023-11-22T12:23:41;5.30;99.90
13203;DHT22;6666;51.626;7.530;2023-11-22T12:26:10;5.30;99.90
13203;DHT22;6666;51.626;7.530;2023-11-22T12:28:40;5.30;99.90
13203;DHT22;6666;51.626;7.530;2023-11-22T12:31:19;5.20;99.90
13203;DHT22;6666;51.626;7.530;2023-11-22T12:33:49;5.30;99.90
13203;DHT22;6666;51.626;7.530;2023-11-22T12:36:19;5.30;99.90
13203;DHT22;6666;51.626;7.530;2023-11-22T12:38:48;5.30;99.90
13203;DHT22;6666;51.626;7.530;2023-11-22T12:41:15;5.30;99.90
13203;DHT22;6666;51.626;7.530;2023-11-22T12:44:02;5.30;99.90
13203;DHT22;6666;51.626;7.530;2023-11-22T12:46:45;5.30;99.90
13203;DHT22;6666;51.626;7.530;2023-11-22T12:49:17;5.40;99.90
13203;DHT22;6666;51.626;7.530;2023-11-22T12:51:47;5.40;99.90
13203;DHT22;6666;51.626;7.530;2023-11-22T12:54:16;5.40;99.90
13203;DHT22;6666;51.626;7.530;2023-11-22T12:56:48;5.50;99.90
13203;DHT22;6666;51.626;7.530;2023-11-22T12:59:17;5.40;99.90
13203;DHT22;6666;51.626;7.530;2023-11-22T13:01:45;5.40;99.90
13203;DHT22;6666;51.626;7.530;2023-11-22T13:04:13;5.40;99.90
13203;DHT22;6666;51.626;7.530;2023-11-22T13:06:44;5.40;99.90
13203;DHT22;6666;51.626;7.530;2023-11-22T13:09:20;5.40;99.90
13203;DHT22;6666;51.626;7.530;2023-11-22T13:11:48;5.40;99.90
13203;DHT22;6666;51.626;7.530;2023-11-22T13:14:18;5.30;99.90
13203;DHT22;6666;51.626;7.530;2023-11-22T13:16:46;5.40;99.90
13203;DHT22;6666;51.626;7.530;2023-11-22T13:19:15;5.40;99.90
13203;DHT22;6666;51.626;7.530;2023-11-22T13:21:44;5.50;99.90
13203;DHT22;6666;51.626;7.530;2023-11-22T13:24:14;5.60;99.90
13203;DHT22;6666;51.626;7.530;2023-11-22T13:26:44;5.60;99.90
13203;DHT22;6666;51.626;7.530;2023-11-22T13:29:12;5.70;99.90
13203;DHT22;6666;51.626;7.530;2023-11-22T13:31:41;5.80;99.90
13203;DHT22;6666;51.626;7.530;2023-11-22T13:34:09;5.80;99.90
13203;DHT22;6666;51.626;7.530;2023-11-22T13:36:37;5.90;99.90
13203;DHT22;6666;51.626;7.530;2023-11-22T13:39:07;6.00;99.90
13203;DHT22;6666;51.626;7.530;2023-11-22T13:41:36;6.00;99.90
13203;DHT22;6666;51.626;7.530;2023-11-22T13:44:05;5.90;99.90
13203;DHT22;6666;51.626;7.530;2023-11-22T13:46:33;5.90;99.90
13203;DHT22;6666;51.626;7.530;2023-11-22T13:49:01;5.90;99.90
13203;DHT22;6666;51.626;7.530;2023-11-22T13:51:29;5.90;99.90
13203;DHT22;6666;51.626;7.530;2023-11-22T13:53:58;5.90;99.90
13203;DHT22;6666;51.626;7.530;2023-11-22T13:56:27;6.00;99.90
13203;DHT22;6666;51.626;7.530;2023-11-22T13:58:55;6.00;99.90
13203;DHT22;6666;51.626;7.530;2023-11-22T14:01:25;6.00;99.90
13203;DHT22;6666;51.626;7.530;2023-11-22T14:03:53;6.00;99.90
13203;DHT22;6666;51.626;7.530;2023-11-22T14:06:23;6.00;99.90
13203;DHT22;6666;51.626;7.530;2023-11-22T14:08:52;5.90;99.90
13203;DHT22;6666;51.626;7.530;2023-11-22T14:11:20;5.90;99.90
13203;DHT22;6666;51.626;7.530;2023-11-22T14:13:49;5.90;99.90
13203;DHT22;6666;51.626;7.530;2023-11-22T14:16:17;5.90;99.90
13203;DHT22;6666;51.626;7.530;2023-11-22T14:18:45;5.90;99.90
13203;DHT22;6666;51.626;7.530;2023-11-22T14:21:13;5.90;99.90
13203;DHT22;6666;51.626;7.530;2023-11-22T14:23:42;5.90;99.90
13203;DHT22;6666;51.626;7.530;2023-11-22T14:26:11;5.80;99.90
13203;DHT22;6666;51.626;7.530;2023-11-22T14:28:39;5.80;99.90
13203;DHT22;6666;51.626;7.530;2023-11-22T14:31:10;5.80;99.90
13203;DHT22;6666;51.626;7.530;2023-11-22T14:33:41;5.80;99.90
13203;DHT22;6666;51.626;7.530;2023-11-22T14:36:09;5.80;99.90
13203;DHT22;6666;51.626;7.530;2023-11-22T14:38:37;5.80;99.90
13203;DHT22;6666;51.626;7.530;2023-11-22T14:41:07;5.70;99.90
13203;DHT22;6666;51.626;7.530;2023-11-22T14:43:36;5.70;99.90
13203;DHT22;6666;51.626;7.530;2023-11-22T14:46:05;5.80;99.90
13203;DHT22;6666;51.626;7.530;2023-11-22T14:48:34;5.70;99.90
13203;DHT22;6666;51.626;7.530;2023-11-22T14:51:04;5.70;99.90
13203;DHT22;6666;51.626;7.530;2023-11-22T14:53:35;5.70;99.90
13203;DHT22;6666;51.626;7.530;2023-11-22T14:56:06;5.70;99.90
13203;DHT22;6666;51.626;7.530;2023-11-22T14:58:34;5.70;99.90
13203;DHT22;6666;51.626;7.530;2023-11-22T15:01:02;5.70;99.90
13203;DHT22;6666;51.626;7.530;2023-11-22T15:03:34;5.70;99.90
13203;DHT22;6666;51.626;7.530;2023-11-22T15:06:02;5.70;99.90
13203;DHT22;6666;51.626;7.530;2023-11-22T15:08:31;5.70;99.90
13203;DHT22;6666;51.626;7.530;2023-11-22T15:11:00;5.70;99.90
13203;DHT22;6666;51.626;7.530;2023-11-22T15:13:28;5.70;99.90
13203;DHT22;6666;51.626;7.530;2023-11-22T15:15:56;5.70;99.90
13203;DHT22;6666;51.626;7.530;2023-11-22T15:18:24;5.70;99.90
13203;DHT22;6666;51.626;7.530;2023-11-22T15:20:55;5.70;99.90
13203;DHT22;6666;51.626;7.530;2023-11-22T15:23:24;5.60;99.90
13203;DHT22;6666;51.626;7.530;2023-11-22T15:25:52;5.60;99.90
13203;DHT22;6666;51.626;7.530;2023-11-22T15:28:20;5.60;99.90
13203;DHT22;6666;51.626;7.530;2023-11-22T15:30:49;5.60;99.90
13203;DHT22;6666;51.626;7.530;2023-11-22T15:33:23;5.50;99.90
13203;DHT22;6666;51.626;7.530;2023-11-22T15:35:51;5.50;99.90
13203;DHT22;6666;51.626;7.530;2023-11-22T15:38:21;5.50;99.90
13203;DHT22;6666;51.626;7.530;2023-11-22T15:40:49;5.50;99.90
13203;DHT22;6666;51.626;7.530;2023-11-22T15:43:17;5.60;99.90
13203;DHT22;6666;51.626;7.530;2023-11-22T15:45:46;5.60;99.90
13203;DHT22;6666;51.626;7.530;2023-11-22T15:48:14;5.50;99.90
13203;DHT22;6666;51.626;7.530;2023-11-22T15:50:42;5.50;99.90
13203;DHT22;6666;51.626;7.530;2023-11-22T15:53:10;5.40;99.90
13203;DHT22;6666;51.626;7.530;2023-11-22T15:55:41;5.50;99.90
13203;DHT22;6666;51.626;7.530;2023-11-22T15:58:10;5.40;99.90
13203;DHT22;6666;51.626;7.530;2023-11-22T16:00:38;5.40;99.90
13203;DHT22;6666;51.626;7.530;2023-11-22T16:03:06;5.40;99.90
13203;DHT22;6666;51.626;7.530;2023-11-22T16:05:44;5.40;99.90
13203;DHT22;6666;51.626;7.530;2023-11-22T16:08:15;5.40;99.90
13203;DHT22;6666;51.626;7.530;2023-11-22T16:10:44;5.40;99.90
13203;DHT22;6666;51.626;7.530;2023-11-22T16:13:12;5.50;99.90
13203;DHT22;6666;51.626;7.530;2023-11-22T16:15:40;5.50;99.90
13203;DHT22;6666;51.626;7.530;2023-11-22T16:18:09;5.50;99.90
13203;DHT22;6666;51.626;7.530;2023-11-22T16:20:37;5.50;99.90
13203;DHT22;6666;51.626;7.530;2023-11-22T16:23:05;5.50;99.90
13203;DHT22;6666;51.626;7.530;2023-11-22T16:25:33;5.50;99.90